Time;durP1;ratioP1;P1;durP2;ratioP2;P2;SDS_P1;SDS_P2;PMS_P1;PMS_P2;Temp;Humidity;BMP_temperature;BMP_pressure;BME280_temperature;BME280_humidity;BME280_pressure;Samples;Min_cycle;Max_cycle;Signal;HPM_P1;HPM_P2
2023/07/23 00:01:28;;;;;;;5.33;3.93;;;17.30;99.90;;;;;;4937997;29;20442;-64
2023/07/23 00:04:00;;;;;;;6.60;4.10;;;17.30;99.90;;;;;;4941501;29;20043;-63
2023/07/23 00:06:33;;;;;;;6.13;5.45;;;17.30;99.90;;;;;;4940951;29;20399;-64
2023/07/23 00:09:05;;;;;;;;;;;17.30;99.90;;;;;;4944495;29;20138;-64
2023/07/23 00:11:31;;;;;;;6.82;4.10;;;17.20;99.90;;;;;;4943121;29;19922;-64
2023/07/23 00:14:03;;;;;;;5.15;3.80;;;17.20;99.90;;;;;;4949057;29;20051;-64
2023/07/23 00:16:35;;;;;;;4.60;3.47;;;17.20;99.90;;;;;;4940040;29;20044;-64
2023/07/23 00:19:07;;;;;;;6.85;3.95;;;17.10;99.90;;;;;;4948355;29;20059;-64
2023/07/23 00:21:39;;;;;;;5.82;3.95;;;17.10;99.90;;;;;;4948537;29;20071;-64
2023/07/23 00:24:06;;;;;;;4.63;3.60;;;17.10;99.90;;;;;;4947169;29;20043;-64
2023/07/23 00:26:33;;;;;;;4.28;3.40;;;17.10;99.90;;;;;;4945284;29;20045;-64
2023/07/23 00:29:05;;;;;;;3.90;3.03;;;17.10;99.90;;;;;;4926023;29;20138;-64
2023/07/23 00:31:37;;;;;;;4.18;3.47;;;17.10;99.90;;;;;;4923941;29;20503;-64
2023/07/23 00:34:09;;;;;;;4.05;3.45;;;17.10;99.90;;;;;;4937500;29;20047;-64
2023/07/23 00:36:41;;;;;;;5.40;3.78;;;17.10;99.90;;;;;;4929585;29;20055;-64
2023/07/23 00:39:13;;;;;;;5.65;4.32;;;17.10;99.90;;;;;;4951416;29;20047;-63
2023/07/23 00:41:45;;;;;;;6.18;3.50;;;17.10;99.90;;;;;;4934436;29;20063;-64
2023/07/23 00:44:17;;;;;;;5.80;3.63;;;17.10;99.90;;;;;;4934837;29;20048;-64
2023/07/23 00:46:49;;;;;;;4.63;3.70;;;17.10;99.90;;;;;;4923341;29;20710;-64
2023/07/23 00:49:21;;;;;;;6.25;4.10;;;17.10;99.90;;;;;;4932263;29;20051;-64
2023/07/23 00:51:53;;;;;;;4.25;3.20;;;17.00;99.90;;;;;;4947534;29;20099;-64
2023/07/23 00:54:25;;;;;;;3.30;2.83;;;17.00;99.90;;;;;;4931809;29;20047;-64
2023/07/23 00:56:59;;;;;;;5.60;3.78;;;17.00;99.90;;;;;;4940880;29;20709;-64
2023/07/23 00:59:32;;;;;;;4.38;3.58;;;17.00;99.90;;;;;;4938726;29;20043;-64
2023/07/23 01:02:04;;;;;;;3.17;2.85;;;17.00;99.90;;;;;;4943735;29;20051;-64
2023/07/23 01:04:36;;;;;;;7.15;3.33;;;16.90;99.90;;;;;;4938954;29;20050;-64
2023/07/23 01:07:07;;;;;;;4.40;3.15;;;16.90;99.90;;;;;;4938605;29;20039;-64
2023/07/23 01:09:39;;;;;;;4.13;2.83;;;16.80;99.90;;;;;;4925242;29;20047;-64
2023/07/23 01:12:13;;;;;;;5.00;3.10;;;16.90;99.90;;;;;;4943003;29;20059;-64
2023/07/23 01:14:45;;;;;;;4.00;3.13;;;16.80;99.90;;;;;;4944737;29;20138;-64
2023/07/23 01:17:14;;;;;;;5.07;2.63;;;16.90;99.90;;;;;;4947162;29;20091;-64
2023/07/23 01:19:46;;;;;;;4.68;3.78;;;16.90;99.90;;;;;;4949332;29;20071;-64
2023/07/23 01:22:13;;;;;;;4.65;3.70;;;16.90;99.90;;;;;;4951060;29;20039;-64
2023/07/23 01:24:45;;;;;;;6.32;3.60;;;17.00;99.90;;;;;;4923332;29;20054;-64
2023/07/23 01:27:16;;;;;;;3.92;3.17;;;16.90;99.90;;;;;;4949057;29;20047;-64
2023/07/23 01:29:48;;;;;;;6.28;4.07;;;16.90;99.90;;;;;;4924360;29;20062;-64
2023/07/23 01:32:20;;;;;;;4.78;3.60;;;16.80;99.90;;;;;;4933120;29;20530;-64
2023/07/23 01:34:52;;;;;;;4.85;3.35;;;16.80;99.90;;;;;;4945754;29;20047;-64
2023/07/23 01:37:25;;;;;;;3.23;2.73;;;16.70;99.90;;;;;;4943908;29;20079;-64
2023/07/23 01:39:56;;;;;;;4.30;3.20;;;16.70;99.90;;;;;;4941664;29;20286;-64
2023/07/23 01:42:28;;;;;;;4.47;3.20;;;16.70;99.90;;;;;;4948984;29;20051;-64
2023/07/23 01:45:04;;;;;;;4.38;3.30;;;16.70;99.90;;;;;;4936771;29;20048;-64
2023/07/23 01:47:36;;;;;;;4.05;3.33;;;16.70;99.90;;;;;;4919164;29;20043;-64
2023/07/23 01:50:08;;;;;;;4.75;3.10;;;16.70;99.90;;;;;;4937555;29;20164;-64
2023/07/23 01:52:41;;;;;;;3.53;2.97;;;16.70;99.90;;;;;;4907316;29;20526;-64
2023/07/23 01:55:12;;;;;;;3.87;3.23;;;16.70;99.90;;;;;;4924451;29;20075;-64
2023/07/23 01:57:44;;;;;;;3.72;2.90;;;16.80;99.90;;;;;;4926998;29;20865;-64
2023/07/23 02:00:16;;;;;;;4.90;3.00;;;16.80;99.90;;;;;;4928364;29;20536;-64
2023/07/23 02:02:48;;;;;;;4.38;2.75;;;16.70;99.90;;;;;;4924779;29;20043;-64
2023/07/23 02:05:17;;;;;;;4.20;3.17;;;16.70;99.90;;;;;;4939408;29;20039;-64
2023/07/23 02:07:49;;;;;;;3.97;2.92;;;16.70;99.90;;;;;;4922600;29;20047;-64
2023/07/23 02:10:21;;;;;;;3.63;3.03;;;16.60;99.90;;;;;;4935379;29;20048;-63
2023/07/23 02:12:53;;;;;;;4.88;3.65;;;16.60;99.90;;;;;;4947629;29;20047;-64
2023/07/23 02:15:25;;;;;;;3.40;3.10;;;16.50;99.90;;;;;;4938269;29;20048;-64
2023/07/23 02:17:57;;;;;;;4.25;3.10;;;16.50;99.90;;;;;;4925283;29;20414;-64
2023/07/23 02:20:29;;;;;;;3.92;2.92;;;16.50;99.90;;;;;;4926738;29;20536;-63
2023/07/23 02:23:01;;;;;;;4.28;3.35;;;16.50;99.90;;;;;;4942620;29;20570;-64
2023/07/23 02:25:37;;;;;;;4.45;3.53;;;16.40;99.90;;;;;;4944808;29;20539;-64
2023/07/23 02:28:10;;;;;;;5.20;3.00;;;16.40;99.90;;;;;;4940654;29;20052;-64
2023/07/23 02:30:42;;;;;;;5.38;3.00;;;16.40;99.90;;;;;;4935443;29;20099;-64
2023/07/23 02:33:09;;;;;;;4.78;3.17;;;16.40;99.90;;;;;;4934265;29;20066;-64
2023/07/23 02:35:42;;;;;;;6.00;2.83;;;16.40;99.90;;;;;;4932972;29;20466;-63
2023/07/23 02:38:14;;;;;;;3.58;3.10;;;16.40;99.90;;;;;;4949737;29;20051;-64
2023/07/23 02:40:46;;;;;;;4.20;3.45;;;16.50;99.90;;;;;;4927983;29;20171;-64
2023/07/23 02:43:13;;;;;;;3.63;2.90;;;16.50;99.90;;;;;;4942034;29;20044;-64
2023/07/23 02:45:44;;;;;;;5.15;3.20;;;16.50;99.90;;;;;;4940027;29;20067;-64
2023/07/23 02:48:16;;;;;;;5.32;2.92;;;16.50;99.90;;;;;;4946668;29;20066;-64
2023/07/23 02:50:50;;;;;;;5.63;2.92;;;16.50;99.90;;;;;;4937216;29;20069;-64
2023/07/23 02:53:22;;;;;;;3.97;2.95;;;16.40;99.90;;;;;;4941332;29;20118;-64
2023/07/23 02:55:54;;;;;;;5.00;3.15;;;16.50;99.90;;;;;;4934882;29;20110;-64
2023/07/23 02:58:26;;;;;;;3.77;2.93;;;16.50;99.90;;;;;;4935848;29;20120;-64
2023/07/23 03:00:58;;;;;;;4.72;3.25;;;16.40;99.90;;;;;;4938209;29;20147;-64
2023/07/23 03:03:25;;;;;;;4.15;3.28;;;16.40;99.90;;;;;;4944509;29;20067;-64
2023/07/23 03:05:57;;;;;;;4.32;3.13;;;16.40;99.90;;;;;;4940739;29;20066;-64
2023/07/23 03:08:28;;;;;;;3.58;2.85;;;16.30;99.90;;;;;;4933238;29;20582;-64
2023/07/23 03:11:01;;;;;;;6.82;2.83;;;16.20;99.90;;;;;;4938045;28;20048;-64
2023/07/23 03:13:33;;;;;;;3.43;2.77;;;16.20;99.90;;;;;;4924402;29;20137;-64
2023/07/23 03:16:05;;;;;;;4.07;3.20;;;16.20;99.90;;;;;;4934490;29;20436;-64
2023/07/23 03:18:36;;;;;;;6.03;3.42;;;16.10;99.90;;;;;;4922083;29;20430;-64
2023/07/23 03:21:08;;;;;;;4.75;3.50;;;16.10;99.90;;;;;;4937490;29;20506;-63
2023/07/23 03:23:43;;;;;;;5.90;3.60;;;16.10;99.90;;;;;;4940645;29;20418;-64
2023/07/23 03:26:15;;;;;;;4.85;3.30;;;16.10;99.90;;;;;;4934471;29;20047;-64
2023/07/23 03:28:47;;;;;;;3.83;3.38;;;16.10;99.90;;;;;;4927937;29;20099;-64
2023/07/23 03:31:18;;;;;;;3.42;2.72;;;16.10;99.90;;;;;;4945585;29;20570;-64
2023/07/23 03:33:50;;;;;;;3.67;2.92;;;16.10;99.90;;;;;;4946675;29;20429;-64
2023/07/23 03:36:23;;;;;;;4.35;2.95;;;16.00;99.90;;;;;;4936353;29;20522;-64
2023/07/23 03:38:55;;;;;;;4.60;3.28;;;16.00;99.90;;;;;;4934309;29;20062;-64
2023/07/23 03:41:28;;;;;;;5.47;3.35;;;16.00;99.90;;;;;;4935225;29;20127;-64
2023/07/23 03:44:00;;;;;;;5.20;3.47;;;16.00;99.90;;;;;;4933254;29;20047;-64
2023/07/23 03:46:31;;;;;;;4.10;3.10;;;16.00;99.90;;;;;;4930906;29;20039;-64
2023/07/23 03:49:03;;;;;;;5.28;3.33;;;16.00;99.90;;;;;;4940602;29;20046;-64
2023/07/23 03:51:35;;;;;;;4.65;2.90;;;16.10;99.90;;;;;;4942463;29;20054;-64
2023/07/23 03:54:07;;;;;;;5.68;3.60;;;16.00;99.90;;;;;;4944268;29;20047;-64
2023/07/23 03:56:39;;;;;;;4.55;3.00;;;16.10;99.90;;;;;;4922241;29;20052;-64
2023/07/23 03:59:05;;;;;;;3.97;2.97;;;16.00;99.90;;;;;;4937252;29;20130;-64
2023/07/23 04:01:37;;;;;;;4.57;3.15;;;16.00;99.90;;;;;;4933688;29;20545;-64
2023/07/23 04:04:04;;;;;;;4.07;3.22;;;16.00;99.90;;;;;;4917247;29;20049;-64
2023/07/23 04:06:36;;;;;;;5.18;3.25;;;16.00;99.90;;;;;;4935648;29;20051;-64
2023/07/23 04:09:08;;;;;;;5.32;3.30;;;15.90;99.90;;;;;;4921933;29;20162;-64
2023/07/23 04:11:41;;;;;;;4.25;3.05;;;15.90;99.90;;;;;;4924137;29;20048;-63
2023/07/23 04:14:13;;;;;;;6.05;4.05;;;15.80;99.90;;;;;;4941991;29;20073;-64
2023/07/23 04:16:46;;;;;;;4.50;3.33;;;15.80;99.90;;;;;;4939692;29;20152;-64
2023/07/23 04:19:18;;;;;;;5.28;3.22;;;15.80;99.90;;;;;;4921687;29;20063;-63
2023/07/23 04:21:50;;;;;;;4.07;2.80;;;15.80;99.90;;;;;;4919370;29;20048;-64
2023/07/23 04:24:22;;;;;;;3.95;3.13;;;15.90;99.90;;;;;;4951609;29;20548;-64
2023/07/23 04:26:54;;;;;;;5.85;3.75;;;16.00;99.90;;;;;;4933862;29;20422;-64
2023/07/23 04:29:25;;;;;;;3.95;2.70;;;16.00;99.90;;;;;;4935674;29;20051;-64
2023/07/23 04:31:57;;;;;;;3.38;2.80;;;16.10;99.90;;;;;;4939105;29;20477;-64
2023/07/23 04:34:29;;;;;;;4.07;2.63;;;16.10;99.90;;;;;;4943258;29;20149;-64
2023/07/23 04:37:01;;;;;;;5.03;3.45;;;16.20;99.90;;;;;;4941238;29;20583;-64
2023/07/23 04:39:33;;;;;;;5.63;4.10;;;16.20;99.90;;;;;;4923507;29;20426;-64
2023/07/23 04:42:05;;;;;;;7.95;4.75;;;16.20;99.90;;;;;;4930522;29;20521;-64
2023/07/23 04:44:36;;;;;;;6.57;4.10;;;16.10;99.90;;;;;;4935709;29;20054;-63
2023/07/23 04:47:08;;;;;;;7.65;4.40;;;16.10;99.90;;;;;;4948884;29;20039;-64
2023/07/23 04:49:40;;;;;;;5.70;4.05;;;16.10;99.90;;;;;;4951068;29;20518;-63
2023/07/23 04:52:12;;;;;;;6.40;3.95;;;16.00;99.90;;;;;;4929597;29;20051;-64
2023/07/23 04:54:44;;;;;;;5.40;4.40;;;16.00;99.90;;;;;;4927883;29;20048;-64
2023/07/23 04:57:15;;;;;;;5.88;4.07;;;16.00;99.90;;;;;;4941488;29;20055;-64
2023/07/23 04:59:47;;;;;;;5.75;4.32;;;16.00;99.90;;;;;;4943220;29;20409;-64
2023/07/23 05:02:19;;;;;;;5.75;3.97;;;16.10;99.90;;;;;;4940169;29;20135;-63
2023/07/23 05:04:50;;;;;;;9.27;5.47;;;16.00;99.90;;;;;;4947095;29;20051;-63
2023/07/23 05:07:22;;;;;;;9.70;5.20;;;16.00;99.90;;;;;;4948718;29;20421;-64
2023/07/23 05:09:49;;;;;;;6.40;4.68;;;16.00;99.90;;;;;;4945395;29;20135;-63
2023/07/23 05:12:16;;;;;;;4.22;3.15;;;16.10;99.90;;;;;;4934676;29;20039;-64
2023/07/23 05:14:48;;;;;;;6.63;3.63;;;16.20;99.90;;;;;;4948180;29;20045;-64
2023/07/23 05:17:20;;;;;;;5.47;3.35;;;16.30;99.90;;;;;;4922208;29;20139;-64
2023/07/23 05:19:52;;;;;;;6.50;3.83;;;16.40;99.90;;;;;;4944327;29;20382;-64
2023/07/23 05:22:24;;;;;;;10.20;4.30;;;16.50;99.90;;;;;;4940794;29;20518;-64
2023/07/23 05:24:56;;;;;;;14.82;6.15;;;16.60;99.90;;;;;;4939322;29;20828;-63
2023/07/23 05:27:28;;;;;;;7.88;5.40;;;16.60;99.90;;;;;;4937693;29;20078;-64
2023/07/23 05:30:01;;;;;;;18.40;6.38;;;16.60;99.90;;;;;;4935230;29;20046;-64
2023/07/23 05:32:33;;;;;;;11.43;5.50;;;16.60;99.90;;;;;;4935636;29;20525;-63
2023/07/23 05:35:05;;;;;;;10.52;5.80;;;16.60;99.90;;;;;;4936203;29;20039;-63
2023/07/23 05:37:37;;;;;;;8.88;4.95;;;16.70;99.90;;;;;;4940855;29;20071;-64
2023/07/23 05:40:09;;;;;;;10.77;4.70;;;16.70;99.90;;;;;;4941806;29;20047;-63
2023/07/23 05:42:41;;;;;;;7.43;4.32;;;16.80;99.90;;;;;;4947090;29;20047;-64
2023/07/23 05:45:13;;;;;;;7.20;4.50;;;16.90;99.90;;;;;;4948099;29;20462;-64
2023/07/23 05:47:44;;;;;;;5.07;4.13;;;16.90;99.90;;;;;;4928023;29;20046;-64
2023/07/23 05:50:16;;;;;;;6.88;3.85;;;17.00;99.90;;;;;;4951459;29;20503;-64
2023/07/23 05:52:48;;;;;;;6.57;4.05;;;17.10;99.90;;;;;;4938280;29;20039;-64
2023/07/23 05:55:20;;;;;;;7.70;4.20;;;17.10;99.90;;;;;;4935248;29;20070;-64
2023/07/23 05:57:51;;;;;;;5.35;3.95;;;17.20;99.90;;;;;;4939273;29;20039;-64
2023/07/23 06:00:23;;;;;;;3.95;3.40;;;17.30;99.90;;;;;;4910698;29;20043;-63
2023/07/23 06:02:55;;;;;;;3.83;3.15;;;17.40;99.90;;;;;;4947687;29;20039;-64
2023/07/23 06:05:27;;;;;;;6.97;3.42;;;17.50;99.90;;;;;;4944374;29;20051;-64
2023/07/23 06:07:58;;;;;;;7.45;4.38;;;17.60;99.90;;;;;;4946931;29;20039;-64
2023/07/23 06:10:31;;;;;;;5.15;4.15;;;17.70;99.90;;;;;;4942273;29;20044;-64
2023/07/23 06:13:03;;;;;;;6.63;4.05;;;17.80;99.90;;;;;;4938532;29;20040;-64
2023/07/23 06:15:30;;;;;;;8.43;4.07;;;17.90;99.90;;;;;;4920403;29;20075;-64
2023/07/23 06:18:02;;;;;;;4.82;3.30;;;18.00;99.90;;;;;;4936293;29;20052;-63
2023/07/23 06:20:34;;;;;;;2.38;2.17;;;18.00;99.90;;;;;;4952515;29;20064;-64
2023/07/23 06:23:06;;;;;;;3.08;2.47;;;18.20;99.90;;;;;;4940467;29;20488;-64
2023/07/23 06:25:39;;;;;;;3.90;2.92;;;18.40;99.90;;;;;;4942184;29;20040;-64
2023/07/23 06:28:06;;;;;;;3.97;2.47;;;18.60;99.90;;;;;;4944529;29;20045;-64
2023/07/23 06:30:33;;;;;;;3.33;2.97;;;18.60;99.90;;;;;;4946345;29;20039;-64
2023/07/23 06:33:05;;;;;;;3.22;2.50;;;18.70;99.90;;;;;;4941493;29;20036;-64
2023/07/23 06:35:37;;;;;;;3.72;2.50;;;18.90;99.90;;;;;;4939223;29;20426;-64
2023/07/23 06:38:09;;;;;;;4.10;2.40;;;19.40;99.90;;;;;;4937314;29;20053;-64
2023/07/23 06:40:36;;;;;;;4.00;2.70;;;19.70;99.90;;;;;;4936125;29;20567;-64
2023/07/23 06:43:02;;;;;;;7.38;3.63;;;20.00;99.90;;;;;;4937470;29;20048;-64
2023/07/23 06:45:34;;;;;;;5.40;2.40;;;20.20;99.90;;;;;;4949542;29;20043;-64
2023/07/23 06:48:06;;;;;;;5.07;2.50;;;20.40;99.90;;;;;;4945548;29;20039;-64
2023/07/23 06:50:38;;;;;;;4.82;2.80;;;20.50;99.90;;;;;;4946559;29;20443;-64
2023/07/23 06:53:10;;;;;;;3.63;2.50;;;20.60;99.90;;;;;;4929786;29;20425;-64
2023/07/23 06:56:05;;;;;;;3.63;2.47;;;20.70;99.90;;;;;;4933252;29;20139;-63
2023/07/23 06:58:37;;;;;;;3.17;2.58;;;20.80;99.90;;;;;;4935492;29;20051;-64
2023/07/23 07:01:10;;;;;;;5.57;2.72;;;21.00;99.90;;;;;;4948674;28;20059;-64
2023/07/23 07:03:37;;;;;;;3.78;2.13;;;21.10;99.90;;;;;;4941759;29;20051;-64
2023/07/23 07:06:09;;;;;;;3.45;2.42;;;21.20;99.90;;;;;;4943165;29;20035;-64
2023/07/23 07:08:43;;;;;;;4.15;2.45;;;21.20;99.90;;;;;;4940776;29;20074;-64
2023/07/23 07:11:16;;;;;;;3.42;2.70;;;21.30;99.90;;;;;;4930457;29;20058;-64
2023/07/23 07:13:48;;;;;;;4.40;2.90;;;21.30;99.90;;;;;;4946534;29;20098;-64
2023/07/23 07:16:20;;;;;;;4.38;2.80;;;21.50;99.90;;;;;;4943918;29;20302;-64
2023/07/23 07:18:53;;;;;;;2.58;2.33;;;21.60;99.90;;;;;;4943878;29;20071;-64
2023/07/23 07:21:26;;;;;;;4.97;2.93;;;21.70;99.90;;;;;;4940399;29;20039;-64
2023/07/23 07:23:57;;;;;;;3.97;2.47;;;21.70;99.90;;;;;;4940636;29;20050;-64
2023/07/23 07:26:29;;;;;;;3.05;2.40;;;21.80;99.90;;;;;;4952321;29;20595;-64
2023/07/23 07:28:56;;;;;;;5.60;2.65;;;21.90;99.90;;;;;;4940796;29;20043;-64
2023/07/23 07:31:27;;;;;;;3.38;2.38;;;21.90;99.90;;;;;;4951744;29;20035;-64
2023/07/23 07:33:59;;;;;;;3.15;2.50;;;22.10;99.90;;;;;;4950278;29;20039;-63
2023/07/23 07:36:31;;;;;;;2.75;2.45;;;22.10;99.90;;;;;;4948152;29;20705;-64
2023/07/23 07:39:03;;;;;;;3.20;2.58;;;22.20;99.90;;;;;;4946385;29;20481;-64
2023/07/23 07:41:34;;;;;;;3.17;2.50;;;22.30;99.90;;;;;;4930634;29;20047;-67
2023/07/23 07:44:06;;;;;;;3.75;2.72;;;22.30;99.90;;;;;;4919719;29;20107;-64
2023/07/23 07:46:38;;;;;;;4.80;2.50;;;22.40;99.90;;;;;;4938418;29;20036;-66
2023/07/23 07:49:10;;;;;;;3.88;2.88;;;22.50;99.90;;;;;;4946700;29;20043;-64
2023/07/23 07:51:43;;;;;;;3.72;2.42;;;22.60;99.90;;;;;;4950056;29;21123;-64
2023/07/23 07:54:15;;;;;;;3.45;2.53;;;22.60;99.90;;;;;;4946186;29;20040;-64
2023/07/23 07:56:47;;;;;;;3.53;2.30;;;22.70;99.90;;;;;;4942813;29;20122;-64
2023/07/23 07:59:19;;;;;;;3.00;2.63;;;22.80;99.90;;;;;;4943262;29;20130;-65
2023/07/23 08:01:51;;;;;;;4.50;2.57;;;22.80;99.90;;;;;;4945964;29;20047;-64
2023/07/23 08:04:23;;;;;;;3.72;2.63;;;22.90;99.90;;;;;;4943006;29;20044;-64
2023/07/23 08:06:51;;;;;;;3.35;2.55;;;23.00;99.90;;;;;;4937988;29;20399;-64
2023/07/23 08:09:24;;;;;;;2.93;2.23;;;23.10;99.90;;;;;;4935763;29;20050;-64
2023/07/23 08:11:58;;;;;;;5.20;2.70;;;23.20;99.90;;;;;;4920240;29;20382;-64
2023/07/23 08:14:25;;;;;;;4.53;2.80;;;23.30;99.90;;;;;;4937190;29;20050;-64
2023/07/23 08:16:57;;;;;;;4.03;2.75;;;23.30;99.90;;;;;;4940822;29;20426;-64
2023/07/23 08:19:29;;;;;;;4.45;2.58;;;23.40;99.90;;;;;;4944750;29;20176;-64
2023/07/23 08:21:56;;;;;;;3.10;2.60;;;23.50;99.90;;;;;;4945321;29;20522;-64
2023/07/23 08:24:28;;;;;;;3.80;2.67;;;23.50;99.90;;;;;;4929681;29;20665;-64
2023/07/23 08:27:03;;;;;;;2.78;2.30;;;23.60;99.90;;;;;;4947195;29;20172;-64
2023/07/23 08:29:36;;;;;;;3.63;2.40;;;23.70;99.90;;;;;;4944476;29;20047;-63
2023/07/23 08:32:11;;;;;;;3.78;2.53;;;23.80;99.10;;;;;;4924269;29;20046;-64
2023/07/23 08:34:38;;;;;;;3.08;2.35;;;23.80;99.30;;;;;;4941799;29;20043;-64
2023/07/23 08:37:11;;;;;;;3.85;2.50;;;23.70;99.80;;;;;;4923703;29;20078;-64
2023/07/23 08:39:43;;;;;;;5.80;2.33;;;23.80;99.70;;;;;;4942259;29;20056;-64
2023/07/23 08:42:39;;;;;;;3.65;2.63;;;24.00;99.90;;;;;;4926738;29;20070;-64
2023/07/23 08:45:23;;;;;;;5.60;2.53;;;24.10;99.00;;;;;;4943244;29;20042;-64
2023/07/23 08:48:16;;;;;;;3.65;2.63;;;24.20;98.40;;;;;;4938861;29;20036;-64
2023/07/23 08:50:52;;;;;;;5.20;2.22;;;24.30;97.80;;;;;;4936553;29;20407;-64
2023/07/23 08:53:24;;;;;;;3.60;2.22;;;24.30;99.30;;;;;;4934481;29;20036;-64
2023/07/23 08:55:56;;;;;;;2.83;2.30;;;24.40;98.20;;;;;;4935419;29;20407;-64
2023/07/23 08:58:29;;;;;;;3.50;2.60;;;24.50;97.60;;;;;;4938250;29;20047;-63
2023/07/23 09:01:01;;;;;;;2.65;2.40;;;24.50;97.90;;;;;;4943625;29;20045;-64
2023/07/23 09:03:34;;;;;;;4.93;2.67;;;24.60;98.40;;;;;;4946029;29;20039;-64
2023/07/23 09:06:06;;;;;;;4.00;2.55;;;24.60;97.00;;;;;;4944285;29;20036;-64
2023/07/23 09:08:38;;;;;;;4.25;2.72;;;24.60;97.40;;;;;;4945197;28;20051;-63
2023/07/23 09:11:10;;;;;;;3.22;2.65;;;24.60;97.30;;;;;;4941730;29;20039;-64
2023/07/23 09:13:43;;;;;;;4.10;2.60;;;24.70;98.30;;;;;;4942733;29;20979;-64
2023/07/23 09:16:23;;;;;;;5.68;2.78;;;24.80;97.50;;;;;;4950717;29;20046;-64
2023/07/23 09:18:55;;;;;;;3.55;2.30;;;24.90;96.70;;;;;;4945404;29;20047;-64
2023/07/23 09:21:24;;;;;;;4.43;2.42;;;25.10;98.70;;;;;;4941220;29;20131;-64
2023/07/23 09:24:02;;;;;;;3.63;3.05;;;25.20;96.80;;;;;;4941736;29;20047;-64
2023/07/23 09:26:36;;;;;;;2.90;2.33;;;25.10;96.60;;;;;;4933086;29;20584;-64
2023/07/23 09:29:10;;;;;;;3.40;2.50;;;25.20;97.30;;;;;;4946046;29;20044;-64
2023/07/23 09:31:44;;;;;;;2.83;2.53;;;25.20;96.60;;;;;;4944227;29;20051;-64
2023/07/23 09:34:22;;;;;;;4.63;3.00;;;25.40;96.90;;;;;;4940913;29;20130;-65
2023/07/23 09:36:54;;;;;;;3.42;2.90;;;25.40;95.60;;;;;;4927871;29;20054;-64
2023/07/23 09:39:27;;;;;;;3.83;2.50;;;25.40;95.10;;;;;;4938478;29;20122;-64
2023/07/23 09:42:02;;;;;;;5.85;2.97;;;25.30;95.10;;;;;;4949674;29;20114;-64
2023/07/23 09:44:38;;;;;;;3.55;2.60;;;25.50;95.00;;;;;;4949016;29;20075;-64
2023/07/23 09:47:09;;;;;;;3.95;2.60;;;25.40;95.70;;;;;;4931681;29;20103;-65
2023/07/23 09:49:42;;;;;;;4.97;2.60;;;25.50;95.20;;;;;;4952132;29;20039;-64
2023/07/23 09:52:14;;;;;;;5.05;2.78;;;25.60;93.90;;;;;;4943410;29;20162;-64
2023/07/23 09:54:46;;;;;;;3.85;2.85;;;25.70;95.10;;;;;;4948215;29;20472;-64
2023/07/23 09:57:20;;;;;;;3.65;3.13;;;25.80;94.50;;;;;;4951930;29;20066;-64
2023/07/23 09:59:53;;;;;;;3.30;2.83;;;26.00;94.80;;;;;;4949240;29;20039;-64
2023/07/23 10:02:26;;;;;;;4.07;3.00;;;26.10;93.80;;;;;;4928016;29;20050;-64
2023/07/23 10:04:56;;;;;;;5.95;3.38;;;26.20;93.60;;;;;;4948184;29;20043;-66
2023/07/23 10:07:29;;;;;;;4.03;3.45;;;26.00;93.30;;;;;;4949510;29;20819;-66
2023/07/23 10:10:01;;;;;;;5.90;3.03;;;26.00;93.30;;;;;;4946213;29;20058;-64
2023/07/23 10:12:33;;;;;;;7.35;4.28;;;26.00;93.30;;;;;;4948435;29;20518;-66
2023/07/23 10:15:06;;;;;;;9.35;8.38;;;26.10;93.50;;;;;;4945283;29;21423;-66
2023/07/23 10:17:47;;;;;;;3.90;3.22;;;26.30;93.90;;;;;;4946147;29;20125;-65
2023/07/23 10:20:16;;;;;;;10.18;8.93;;;26.40;93.00;;;;;;4939118;29;20515;-66
2023/07/23 10:22:48;;;;;;;7.57;6.88;;;26.50;93.10;;;;;;4937582;29;20044;-64
2023/07/23 10:25:32;;;;;;;5.57;3.90;;;26.30;92.40;;;;;;4939475;29;20176;-64
2023/07/23 10:28:09;;;;;;;22.60;20.27;;;25.90;92.60;;;;;;4942261;29;20131;-64
2023/07/23 10:30:40;;;;;;;4.43;2.97;;;25.70;93.30;;;;;;4917593;29;20052;-64
2023/07/23 10:33:12;;;;;;;7.30;3.53;;;25.80;92.80;;;;;;4943072;29;20051;-64
2023/07/23 10:35:53;;;;;;;4.55;2.88;;;25.90;93.60;;;;;;4943051;29;20079;-64
2023/07/23 10:38:30;;;;;;;5.20;3.15;;;26.00;94.00;;;;;;4924880;29;20063;-64
2023/07/23 10:41:02;;;;;;;6.82;3.30;;;26.00;93.10;;;;;;4920597;29;20055;-64
2023/07/23 10:43:41;;;;;;;4.10;2.88;;;26.20;93.50;;;;;;4942747;29;20585;-64
2023/07/23 10:46:19;;;;;;;4.82;3.40;;;26.40;93.30;;;;;;4947191;29;20130;-64
2023/07/23 10:48:55;;;;;;;4.38;3.30;;;26.40;92.30;;;;;;4946935;29;20036;-64
2023/07/23 10:51:26;;;;;;;5.05;3.38;;;26.40;92.60;;;;;;4938479;29;20039;-64
2023/07/23 10:54:05;;;;;;;3.70;3.05;;;26.40;92.80;;;;;;4941412;29;20052;-64
2023/07/23 10:56:40;;;;;;;;;;;26.50;92.10;;;;;;4945290;29;20102;-64
2023/07/23 10:59:16;;;;;;;4.38;3.33;;;26.40;91.30;;;;;;4947116;29;19929;-64
2023/07/23 11:01:50;;;;;;;6.80;4.25;;;26.30;91.20;;;;;;4945143;29;20047;-64
2023/07/23 11:04:26;;;;;;;6.68;4.80;;;26.30;91.50;;;;;;4939261;29;20039;-63
2023/07/23 11:07:02;;;;;;;9.35;4.88;;;26.20;90.70;;;;;;4937883;29;20506;-66
2023/07/23 11:09:37;;;;;;;5.30;4.10;;;26.10;90.70;;;;;;4938541;29;20050;-65
2023/07/23 11:12:10;;;;;;;7.22;5.05;;;26.20;90.90;;;;;;4942437;29;20043;-64
2023/07/23 11:14:42;;;;;;;;;;;26.20;90.00;;;;;;4947981;29;20126;-64
2023/07/23 11:17:13;;;;;;;6.05;4.53;;;26.20;90.20;;;;;;4950970;29;20305;-67
2023/07/23 11:19:46;;;;;;;5.47;4.18;;;26.50;91.10;;;;;;4947155;29;20110;-65
2023/07/23 11:22:18;;;;;;;7.72;4.30;;;26.70;90.50;;;;;;4944518;29;20047;-63
2023/07/23 11:24:49;;;;;;;7.00;4.78;;;26.90;91.30;;;;;;4944237;29;20047;-64
2023/07/23 11:27:21;;;;;;;5.32;4.00;;;27.00;89.00;;;;;;4939272;29;20071;-63
2023/07/23 11:29:53;;;;;;;7.25;4.80;;;27.10;90.80;;;;;;4927667;29;20051;-64
2023/07/23 11:32:21;;;;;;;6.07;4.55;;;27.20;89.00;;;;;;4938540;28;20048;-63
2023/07/23 11:34:52;;;;;;;5.93;4.53;;;27.20;87.30;;;;;;4938169;29;20511;-64
2023/07/23 11:37:24;;;;;;;9.07;4.93;;;27.20;88.50;;;;;;4922301;29;20054;-63
2023/07/23 11:39:56;;;;;;;7.05;5.05;;;27.40;90.20;;;;;;4943746;29;20048;-64
2023/07/23 11:42:32;;;;;;;8.90;6.35;;;27.50;86.30;;;;;;4939450;29;20146;-64
2023/07/23 11:45:05;;;;;;;7.88;5.30;;;27.30;86.40;;;;;;4923989;29;20057;-64
2023/07/23 11:47:47;;;;;;;7.43;5.70;;;27.30;85.80;;;;;;4941256;29;20050;-64
2023/07/23 11:50:20;;;;;;;20.48;6.93;;;27.40;87.60;;;;;;4926820;29;20446;-63
2023/07/23 11:52:49;;;;;;;9.07;6.82;;;27.50;84.70;;;;;;4934243;29;20038;-63
2023/07/23 11:55:24;;;;;;;12.77;5.65;;;27.40;83.20;;;;;;4934419;29;20055;-63
2023/07/23 11:58:00;;;;;;;8.13;5.60;;;27.40;85.30;;;;;;4936567;29;20126;-64
2023/07/23 12:00:35;;;;;;;10.60;5.60;;;27.30;84.80;;;;;;4948355;29;20049;-63
2023/07/23 12:03:09;;;;;;;11.98;5.57;;;27.30;87.30;;;;;;4941004;29;20048;-64
2023/07/23 12:05:41;;;;;;;10.20;6.60;;;27.30;83.90;;;;;;4942227;29;20056;-64
2023/07/23 12:08:13;;;;;;;16.90;7.68;;;27.50;85.80;;;;;;4925144;29;20043;-63
2023/07/23 12:10:44;;;;;;;12.02;7.45;;;27.50;83.20;;;;;;4946046;29;20138;-63
2023/07/23 12:13:16;;;;;;;11.18;7.85;;;27.40;81.50;;;;;;4947300;29;20407;-64
2023/07/23 12:15:54;;;;;;;13.30;7.22;;;27.30;81.40;;;;;;4951300;29;20058;-64
2023/07/23 12:18:22;;;;;;;;;;;27.20;80.50;;;;;;4935145;29;20043;-64
2023/07/23 12:20:59;;;;;;;11.98;7.70;;;27.00;82.50;;;;;;4927968;29;20416;-64
2023/07/23 12:23:30;;;;;;;10.52;6.68;;;27.10;84.50;;;;;;4947202;29;20070;-63
2023/07/23 12:26:02;;;;;;;10.38;6.60;;;27.10;82.90;;;;;;4942694;29;20044;-64
2023/07/23 12:28:34;;;;;;;8.98;6.32;;;26.90;83.30;;;;;;4943287;29;20059;-64
2023/07/23 12:31:05;;;;;;;11.40;7.18;;;26.80;84.30;;;;;;4945441;29;20055;-64
2023/07/23 12:33:37;;;;;;;13.05;7.00;;;26.90;84.50;;;;;;4943823;29;20046;-63
2023/07/23 12:36:09;;;;;;;11.52;8.02;;;27.20;84.20;;;;;;4936315;29;20069;-64
2023/07/23 12:38:36;;;;;;;13.43;7.80;;;27.30;81.40;;;;;;4933165;29;20654;-63
2023/07/23 12:41:08;;;;;;;12.80;8.13;;;27.50;82.70;;;;;;4934547;29;20518;-64
2023/07/23 12:43:40;;;;;;;13.65;9.43;;;27.50;80.70;;;;;;4948890;28;20502;-63
2023/07/23 12:46:11;;;;;;;17.15;8.07;;;27.50;79.40;;;;;;4937763;29;20073;-63
2023/07/23 12:48:46;;;;;;;13.48;8.02;;;27.50;80.70;;;;;;4940454;29;20048;-63
2023/07/23 12:51:18;;;;;;;16.88;8.65;;;27.50;80.60;;;;;;4943098;29;20043;-64
2023/07/23 12:53:49;;;;;;;11.35;8.18;;;27.70;82.60;;;;;;4940276;29;20040;-64
2023/07/23 12:56:21;;;;;;;13.55;8.52;;;27.80;80.10;;;;;;4937047;29;20062;-64
2023/07/23 12:58:53;;;;;;;13.50;7.65;;;27.50;78.80;;;;;;4943490;29;20032;-63
2023/07/23 13:01:25;;;;;;;12.27;8.27;;;27.40;79.60;;;;;;4951542;29;20043;-64
2023/07/23 13:03:57;;;;;;;14.23;8.88;;;27.50;81.20;;;;;;4931665;29;20398;-63
2023/07/23 13:06:29;;;;;;;11.85;7.93;;;27.50;81.10;;;;;;4939419;29;20050;-64
2023/07/23 13:09:00;;;;;;;12.80;8.05;;;27.40;79.60;;;;;;4938982;29;20040;-64
2023/07/23 13:11:33;;;;;;;10.15;7.95;;;27.10;79.80;;;;;;4944533;29;20687;-64